sensor_id;sensor_type;location;lat;lon;timestamp;P1;durP1;ratioP1;P2;durP2;ratioP2
20020;SDS011;10171;42.694;23.318;2023-06-10T00:01:09;13.95;;;11.13;;
20020;SDS011;10171;42.694;23.318;2023-06-10T00:03:35;14.13;;;10.70;;
20020;SDS011;10171;42.694;23.318;2023-06-10T00:06:01;12.52;;;9.52;;
20020;SDS011;10171;42.694;23.318;2023-06-10T00:08:27;15.38;;;11.63;;
20020;SDS011;10171;42.694;23.318;2023-06-10T00:10:54;16.00;;;12.75;;
20020;SDS011;10171;42.694;23.318;2023-06-10T00:13:19;15.63;;;11.82;;
20020;SDS011;10171;42.694;23.318;2023-06-10T00:15:45;16.77;;;10.70;;
20020;SDS011;10171;42.694;23.318;2023-06-10T00:18:10;13.95;;;10.05;;
20020;SDS011;10171;42.694;23.318;2023-06-10T00:20:36;11.00;;;7.70;;
20020;SDS011;10171;42.694;23.318;2023-06-10T00:23:03;11.50;;;6.90;;
20020;SDS011;10171;42.694;23.318;2023-06-10T00:25:28;9.65;;;7.05;;
20020;SDS011;10171;42.694;23.318;2023-06-10T00:27:54;8.13;;;6.53;;
20020;SDS011;10171;42.694;23.318;2023-06-10T00:30:20;10.80;;;6.75;;
20020;SDS011;10171;42.694;23.318;2023-06-10T00:32:46;9.98;;;6.90;;
20020;SDS011;10171;42.694;23.318;2023-06-10T00:35:11;9.35;;;7.20;;
20020;SDS011;10171;42.694;23.318;2023-06-10T00:37:37;10.15;;;7.20;;
20020;SDS011;10171;42.694;23.318;2023-06-10T00:40:03;10.00;;;6.88;;
20020;SDS011;10171;42.694;23.318;2023-06-10T00:42:29;10.15;;;6.70;;
20020;SDS011;10171;42.694;23.318;2023-06-10T00:44:54;8.95;;;6.70;;
20020;SDS011;10171;42.694;23.318;2023-06-10T00:47:20;9.38;;;7.15;;
20020;SDS011;10171;42.694;23.318;2023-06-10T00:49:46;8.15;;;6.28;;
20020;SDS011;10171;42.694;23.318;2023-06-10T00:52:14;8.75;;;7.03;;
20020;SDS011;10171;42.694;23.318;2023-06-10T00:54:41;7.90;;;6.40;;
20020;SDS011;10171;42.694;23.318;2023-06-10T00:57:07;10.10;;;6.75;;
20020;SDS011;10171;42.694;23.318;2023-06-10T00:59:32;11.77;;;6.78;;
20020;SDS011;10171;42.694;23.318;2023-06-10T01:01:59;9.05;;;6.72;;
20020;SDS011;10171;42.694;23.318;2023-06-10T01:04:25;8.93;;;7.47;;
20020;SDS011;10171;42.694;23.318;2023-06-10T01:06:57;10.48;;;7.55;;
20020;SDS011;10171;42.694;23.318;2023-06-10T01:09:33;13.93;;;8.90;;
20020;SDS011;10171;42.694;23.318;2023-06-10T01:12:12;10.57;;;8.73;;
20020;SDS011;10171;42.694;23.318;2023-06-10T01:14:59;11.63;;;8.63;;
20020;SDS011;10171;42.694;23.318;2023-06-10T01:17:25;10.48;;;8.57;;
20020;SDS011;10171;42.694;23.318;2023-06-10T01:19:55;8.80;;;7.18;;
20020;SDS011;10171;42.694;23.318;2023-06-10T01:22:24;11.27;;;8.65;;
20020;SDS011;10171;42.694;23.318;2023-06-10T01:24:53;16.33;;;10.65;;
20020;SDS011;10171;42.694;23.318;2023-06-10T01:27:23;30.30;;;18.17;;
20020;SDS011;10171;42.694;23.318;2023-06-10T01:29:57;20.75;;;13.30;;
20020;SDS011;10171;42.694;23.318;2023-06-10T01:32:37;19.58;;;14.60;;
20020;SDS011;10171;42.694;23.318;2023-06-10T01:35:08;22.30;;;13.88;;
20020;SDS011;10171;42.694;23.318;2023-06-10T01:37:34;22.52;;;16.02;;
20020;SDS011;10171;42.694;23.318;2023-06-10T01:40:01;23.17;;;15.15;;
20020;SDS011;10171;42.694;23.318;2023-06-10T01:42:31;19.88;;;13.73;;
20020;SDS011;10171;42.694;23.318;2023-06-10T01:44:57;19.40;;;12.27;;
20020;SDS011;10171;42.694;23.318;2023-06-10T01:47:23;15.48;;;11.52;;
20020;SDS011;10171;42.694;23.318;2023-06-10T01:49:48;16.00;;;11.25;;
20020;SDS011;10171;42.694;23.318;2023-06-10T01:52:14;18.23;;;12.38;;
20020;SDS011;10171;42.694;23.318;2023-06-10T01:54:39;14.52;;;10.02;;
20020;SDS011;10171;42.694;23.318;2023-06-10T01:57:05;13.63;;;9.57;;
20020;SDS011;10171;42.694;23.318;2023-06-10T01:59:31;16.30;;;9.18;;
20020;SDS011;10171;42.694;23.318;2023-06-10T02:01:57;10.45;;;8.35;;
20020;SDS011;10171;42.694;23.318;2023-06-10T02:04:22;10.73;;;7.22;;
20020;SDS011;10171;42.694;23.318;2023-06-10T02:06:47;9.25;;;7.53;;
20020;SDS011;10171;42.694;23.318;2023-06-10T02:09:13;9.52;;;7.47;;
20020;SDS011;10171;42.694;23.318;2023-06-10T02:11:39;9.45;;;7.50;;
20020;SDS011;10171;42.694;23.318;2023-06-10T02:14:04;13.30;;;6.70;;
20020;SDS011;10171;42.694;23.318;2023-06-10T02:16:30;8.48;;;7.32;;
20020;SDS011;10171;42.694;23.318;2023-06-10T02:18:56;9.13;;;7.68;;
20020;SDS011;10171;42.694;23.318;2023-06-10T02:21:22;9.20;;;7.30;;
20020;SDS011;10171;42.694;23.318;2023-06-10T02:23:48;9.75;;;6.53;;
20020;SDS011;10171;42.694;23.318;2023-06-10T02:26:13;9.18;;;6.80;;
20020;SDS011;10171;42.694;23.318;2023-06-10T02:28:42;9.48;;;7.15;;
20020;SDS011;10171;42.694;23.318;2023-06-10T02:31:08;11.15;;;7.47;;
20020;SDS011;10171;42.694;23.318;2023-06-10T02:33:33;9.98;;;7.43;;
20020;SDS011;10171;42.694;23.318;2023-06-10T02:35:59;8.75;;;6.25;;
20020;SDS011;10171;42.694;23.318;2023-06-10T02:38:24;11.40;;;7.25;;
20020;SDS011;10171;42.694;23.318;2023-06-10T02:40:49;10.45;;;7.15;;
20020;SDS011;10171;42.694;23.318;2023-06-10T02:43:15;8.27;;;7.03;;
20020;SDS011;10171;42.694;23.318;2023-06-10T02:45:40;9.55;;;6.40;;
20020;SDS011;10171;42.694;23.318;2023-06-10T02:48:06;8.10;;;7.20;;
20020;SDS011;10171;42.694;23.318;2023-06-10T02:50:31;7.20;;;6.05;;
20020;SDS011;10171;42.694;23.318;2023-06-10T02:52:57;9.38;;;6.38;;
20020;SDS011;10171;42.694;23.318;2023-06-10T02:55:23;9.75;;;6.55;;
20020;SDS011;10171;42.694;23.318;2023-06-10T02:57:51;8.30;;;6.18;;
20020;SDS011;10171;42.694;23.318;2023-06-10T03:00:19;9.98;;;7.07;;
20020;SDS011;10171;42.694;23.318;2023-06-10T03:02:46;9.88;;;7.00;;
20020;SDS011;10171;42.694;23.318;2023-06-10T03:05:12;13.27;;;7.28;;
20020;SDS011;10171;42.694;23.318;2023-06-10T03:07:38;11.98;;;7.60;;
20020;SDS011;10171;42.694;23.318;2023-06-10T03:10:04;8.35;;;7.15;;
20020;SDS011;10171;42.694;23.318;2023-06-10T03:12:31;7.60;;;6.70;;
20020;SDS011;10171;42.694;23.318;2023-06-10T03:14:56;8.85;;;7.03;;
20020;SDS011;10171;42.694;23.318;2023-06-10T03:17:22;8.90;;;6.90;;
20020;SDS011;10171;42.694;23.318;2023-06-10T03:19:47;10.70;;;8.00;;
20020;SDS011;10171;42.694;23.318;2023-06-10T03:22:13;9.52;;;7.78;;
20020;SDS011;10171;42.694;23.318;2023-06-10T03:24:39;8.13;;;7.32;;
20020;SDS011;10171;42.694;23.318;2023-06-10T03:27:06;12.30;;;9.25;;
20020;SDS011;10171;42.694;23.318;2023-06-10T03:29:36;13.00;;;8.30;;
20020;SDS011;10171;42.694;23.318;2023-06-10T03:32:02;15.48;;;10.60;;
20020;SDS011;10171;42.694;23.318;2023-06-10T03:34:28;13.88;;;9.88;;
20020;SDS011;10171;42.694;23.318;2023-06-10T03:36:54;15.25;;;10.85;;
20020;SDS011;10171;42.694;23.318;2023-06-10T03:39:20;13.82;;;10.30;;
20020;SDS011;10171;42.694;23.318;2023-06-10T03:41:46;13.48;;;9.95;;
20020;SDS011;10171;42.694;23.318;2023-06-10T03:44:11;12.60;;;10.55;;
20020;SDS011;10171;42.694;23.318;2023-06-10T03:46:37;14.98;;;10.05;;
20020;SDS011;10171;42.694;23.318;2023-06-10T03:49:03;13.50;;;9.10;;
20020;SDS011;10171;42.694;23.318;2023-06-10T03:51:29;10.75;;;8.13;;
20020;SDS011;10171;42.694;23.318;2023-06-10T03:53:54;11.48;;;9.07;;
20020;SDS011;10171;42.694;23.318;2023-06-10T03:56:20;10.80;;;7.90;;
20020;SDS011;10171;42.694;23.318;2023-06-10T03:58:45;11.43;;;7.80;;
20020;SDS011;10171;42.694;23.318;2023-06-10T04:01:11;9.18;;;6.90;;
20020;SDS011;10171;42.694;23.318;2023-06-10T04:03:38;10.00;;;7.22;;
20020;SDS011;10171;42.694;23.318;2023-06-10T04:06:04;11.85;;;7.72;;
20020;SDS011;10171;42.694;23.318;2023-06-10T04:08:30;10.18;;;7.25;;
20020;SDS011;10171;42.694;23.318;2023-06-10T04:10:56;10.20;;;8.13;;
20020;SDS011;10171;42.694;23.318;2023-06-10T04:13:22;13.32;;;7.88;;
20020;SDS011;10171;42.694;23.318;2023-06-10T04:15:48;10.43;;;7.60;;
20020;SDS011;10171;42.694;23.318;2023-06-10T04:18:13;10.25;;;8.60;;
20020;SDS011;10171;42.694;23.318;2023-06-10T04:20:40;10.40;;;7.60;;
20020;SDS011;10171;42.694;23.318;2023-06-10T04:23:05;12.50;;;9.18;;
20020;SDS011;10171;42.694;23.318;2023-06-10T04:25:31;16.58;;;9.90;;
20020;SDS011;10171;42.694;23.318;2023-06-10T04:27:56;17.67;;;10.77;;
20020;SDS011;10171;42.694;23.318;2023-06-10T04:30:22;17.20;;;10.55;;
20020;SDS011;10171;42.694;23.318;2023-06-10T04:32:47;20.98;;;11.35;;
20020;SDS011;10171;42.694;23.318;2023-06-10T04:35:13;14.55;;;9.88;;
20020;SDS011;10171;42.694;23.318;2023-06-10T04:37:40;15.85;;;10.40;;
20020;SDS011;10171;42.694;23.318;2023-06-10T04:40:06;14.38;;;9.43;;
20020;SDS011;10171;42.694;23.318;2023-06-10T04:42:32;14.55;;;9.38;;
20020;SDS011;10171;42.694;23.318;2023-06-10T04:44:58;13.40;;;9.00;;
20020;SDS011;10171;42.694;23.318;2023-06-10T04:47:23;12.07;;;8.98;;
20020;SDS011;10171;42.694;23.318;2023-06-10T04:49:49;14.40;;;9.07;;
20020;SDS011;10171;42.694;23.318;2023-06-10T04:52:14;15.38;;;9.40;;
20020;SDS011;10171;42.694;23.318;2023-06-10T04:54:39;11.35;;;8.80;;
20020;SDS011;10171;42.694;23.318;2023-06-10T04:57:06;14.27;;;9.48;;
20020;SDS011;10171;42.694;23.318;2023-06-10T04:59:32;10.90;;;8.93;;
20020;SDS011;10171;42.694;23.318;2023-06-10T05:02:02;11.32;;;9.00;;
20020;SDS011;10171;42.694;23.318;2023-06-10T05:04:28;12.82;;;10.25;;
20020;SDS011;10171;42.694;23.318;2023-06-10T05:06:54;14.32;;;9.50;;
20020;SDS011;10171;42.694;23.318;2023-06-10T05:09:20;12.48;;;9.50;;
20020;SDS011;10171;42.694;23.318;2023-06-10T05:11:45;12.57;;;10.25;;
20020;SDS011;10171;42.694;23.318;2023-06-10T05:14:11;14.35;;;9.35;;
20020;SDS011;10171;42.694;23.318;2023-06-10T05:16:37;16.30;;;10.68;;
20020;SDS011;10171;42.694;23.318;2023-06-10T05:19:03;17.33;;;10.68;;
20020;SDS011;10171;42.694;23.318;2023-06-10T05:21:29;12.95;;;8.48;;
20020;SDS011;10171;42.694;23.318;2023-06-10T05:23:54;9.15;;;8.18;;
20020;SDS011;10171;42.694;23.318;2023-06-10T05:26:20;8.90;;;7.10;;
20020;SDS011;10171;42.694;23.318;2023-06-10T05:28:46;11.07;;;8.02;;
20020;SDS011;10171;42.694;23.318;2023-06-10T05:31:11;10.20;;;7.75;;
20020;SDS011;10171;42.694;23.318;2023-06-10T05:33:37;11.77;;;7.20;;
20020;SDS011;10171;42.694;23.318;2023-06-10T05:36:02;9.70;;;7.32;;
20020;SDS011;10171;42.694;23.318;2023-06-10T05:38:27;9.10;;;7.05;;
20020;SDS011;10171;42.694;23.318;2023-06-10T05:40:52;9.38;;;7.20;;
20020;SDS011;10171;42.694;23.318;2023-06-10T05:43:18;9.80;;;7.85;;
20020;SDS011;10171;42.694;23.318;2023-06-10T05:45:44;10.35;;;7.82;;
20020;SDS011;10171;42.694;23.318;2023-06-10T05:48:09;10.68;;;7.43;;
20020;SDS011;10171;42.694;23.318;2023-06-10T05:50:34;8.18;;;6.40;;
20020;SDS011;10171;42.694;23.318;2023-06-10T05:53:04;10.65;;;7.63;;
20020;SDS011;10171;42.694;23.318;2023-06-10T05:55:32;10.95;;;7.68;;
20020;SDS011;10171;42.694;23.318;2023-06-10T05:57:58;9.88;;;7.97;;
20020;SDS011;10171;42.694;23.318;2023-06-10T06:00:25;11.32;;;6.88;;
20020;SDS011;10171;42.694;23.318;2023-06-10T06:02:51;13.38;;;7.93;;
20020;SDS011;10171;42.694;23.318;2023-06-10T06:05:17;12.75;;;7.68;;
20020;SDS011;10171;42.694;23.318;2023-06-10T06:07:43;10.18;;;7.95;;
20020;SDS011;10171;42.694;23.318;2023-06-10T06:10:08;9.38;;;8.38;;
20020;SDS011;10171;42.694;23.318;2023-06-10T06:12:34;11.70;;;8.27;;
20020;SDS011;10171;42.694;23.318;2023-06-10T06:14:59;11.45;;;8.73;;
20020;SDS011;10171;42.694;23.318;2023-06-10T06:17:25;10.52;;;8.80;;
20020;SDS011;10171;42.694;23.318;2023-06-10T06:19:50;11.80;;;8.15;;
20020;SDS011;10171;42.694;23.318;2023-06-10T06:22:16;12.85;;;7.93;;
20020;SDS011;10171;42.694;23.318;2023-06-10T06:24:46;14.43;;;7.88;;
20020;SDS011;10171;42.694;23.318;2023-06-10T06:27:12;8.65;;;6.95;;
20020;SDS011;10171;42.694;23.318;2023-06-10T06:29:37;10.75;;;7.82;;
20020;SDS011;10171;42.694;23.318;2023-06-10T06:32:03;11.65;;;7.50;;
20020;SDS011;10171;42.694;23.318;2023-06-10T06:34:28;7.57;;;6.78;;
20020;SDS011;10171;42.694;23.318;2023-06-10T06:36:54;11.73;;;8.32;;
20020;SDS011;10171;42.694;23.318;2023-06-10T06:39:19;10.13;;;7.47;;
20020;SDS011;10171;42.694;23.318;2023-06-10T06:41:45;11.30;;;7.90;;
20020;SDS011;10171;42.694;23.318;2023-06-10T06:44:10;11.20;;;7.88;;
20020;SDS011;10171;42.694;23.318;2023-06-10T06:46:36;11.18;;;8.05;;
20020;SDS011;10171;42.694;23.318;2023-06-10T06:49:01;9.05;;;6.90;;
20020;SDS011;10171;42.694;23.318;2023-06-10T06:51:26;9.20;;;6.28;;
20020;SDS011;10171;42.694;23.318;2023-06-10T06:53:52;11.80;;;7.18;;
20020;SDS011;10171;42.694;23.318;2023-06-10T06:56:21;9.68;;;6.13;;
20020;SDS011;10171;42.694;23.318;2023-06-10T06:58:47;10.73;;;6.38;;
20020;SDS011;10171;42.694;23.318;2023-06-10T07:01:13;8.85;;;5.97;;
20020;SDS011;10171;42.694;23.318;2023-06-10T07:03:39;13.40;;;7.13;;
20020;SDS011;10171;42.694;23.318;2023-06-10T07:06:05;7.97;;;6.40;;
20020;SDS011;10171;42.694;23.318;2023-06-10T07:08:30;10.00;;;6.57;;
20020;SDS011;10171;42.694;23.318;2023-06-10T07:10:56;8.98;;;6.13;;
20020;SDS011;10171;42.694;23.318;2023-06-10T07:13:21;9.60;;;6.65;;
20020;SDS011;10171;42.694;23.318;2023-06-10T07:15:47;13.10;;;6.80;;
20020;SDS011;10171;42.694;23.318;2023-06-10T07:18:12;9.13;;;7.15;;
20020;SDS011;10171;42.694;23.318;2023-06-10T07:20:37;9.52;;;6.45;;
20020;SDS011;10171;42.694;23.318;2023-06-10T07:23:03;7.15;;;6.45;;
20020;SDS011;10171;42.694;23.318;2023-06-10T07:25:28;10.13;;;6.20;;
20020;SDS011;10171;42.694;23.318;2023-06-10T07:27:54;10.00;;;6.10;;
20020;SDS011;10171;42.694;23.318;2023-06-10T07:30:19;10.15;;;6.03;;
20020;SDS011;10171;42.694;23.318;2023-06-10T07:32:44;8.65;;;6.40;;
20020;SDS011;10171;42.694;23.318;2023-06-10T07:35:10;8.30;;;5.43;;
20020;SDS011;10171;42.694;23.318;2023-06-10T07:37:37;7.97;;;5.25;;
20020;SDS011;10171;42.694;23.318;2023-06-10T07:40:02;8.05;;;5.32;;
20020;SDS011;10171;42.694;23.318;2023-06-10T07:42:28;7.13;;;5.90;;
20020;SDS011;10171;42.694;23.318;2023-06-10T07:44:54;8.02;;;5.07;;
20020;SDS011;10171;42.694;23.318;2023-06-10T07:47:19;8.70;;;5.57;;
20020;SDS011;10171;42.694;23.318;2023-06-10T07:49:45;9.23;;;5.88;;
20020;SDS011;10171;42.694;23.318;2023-06-10T07:52:10;5.75;;;4.22;;
20020;SDS011;10171;42.694;23.318;2023-06-10T07:54:36;7.03;;;4.05;;
20020;SDS011;10171;42.694;23.318;2023-06-10T07:57:01;6.93;;;4.70;;
20020;SDS011;10171;42.694;23.318;2023-06-10T07:59:27;7.00;;;4.65;;
20020;SDS011;10171;42.694;23.318;2023-06-10T08:01:53;6.55;;;4.63;;
20020;SDS011;10171;42.694;23.318;2023-06-10T08:04:18;6.45;;;4.78;;
20020;SDS011;10171;42.694;23.318;2023-06-10T08:06:44;7.10;;;4.95;;
20020;SDS011;10171;42.694;23.318;2023-06-10T08:09:09;8.45;;;5.82;;
20020;SDS011;10171;42.694;23.318;2023-06-10T08:11:35;7.68;;;4.60;;
20020;SDS011;10171;42.694;23.318;2023-06-10T08:14:00;7.63;;;4.65;;
20020;SDS011;10171;42.694;23.318;2023-06-10T08:16:26;5.13;;;4.35;;
20020;SDS011;10171;42.694;23.318;2023-06-10T08:18:51;7.40;;;4.32;;
20020;SDS011;10171;42.694;23.318;2023-06-10T08:21:18;8.68;;;4.72;;
20020;SDS011;10171;42.694;23.318;2023-06-10T08:23:43;6.55;;;5.00;;
20020;SDS011;10171;42.694;23.318;2023-06-10T08:26:09;5.82;;;4.35;;
20020;SDS011;10171;42.694;23.318;2023-06-10T08:28:34;6.53;;;4.45;;
20020;SDS011;10171;42.694;23.318;2023-06-10T08:31:00;4.50;;;3.88;;
20020;SDS011;10171;42.694;23.318;2023-06-10T08:33:25;7.40;;;4.20;;
20020;SDS011;10171;42.694;23.318;2023-06-10T08:35:51;4.80;;;4.25;;
20020;SDS011;10171;42.694;23.318;2023-06-10T08:38:16;8.48;;;5.30;;
20020;SDS011;10171;42.694;23.318;2023-06-10T08:40:42;5.03;;;4.35;;
20020;SDS011;10171;42.694;23.318;2023-06-10T08:43:10;4.97;;;4.47;;
20020;SDS011;10171;42.694;23.318;2023-06-10T08:45:42;5.35;;;4.28;;
20020;SDS011;10171;42.694;23.318;2023-06-10T08:48:10;6.10;;;4.20;;
20020;SDS011;10171;42.694;23.318;2023-06-10T08:50:37;6.35;;;4.05;;
20020;SDS011;10171;42.694;23.318;2023-06-10T08:53:04;7.07;;;4.30;;
20020;SDS011;10171;42.694;23.318;2023-06-10T08:55:32;9.40;;;4.28;;
20020;SDS011;10171;42.694;23.318;2023-06-10T08:58:00;6.78;;;4.30;;
20020;SDS011;10171;42.694;23.318;2023-06-10T09:00:27;4.53;;;4.13;;
20020;SDS011;10171;42.694;23.318;2023-06-10T09:02:53;7.47;;;4.25;;
20020;SDS011;10171;42.694;23.318;2023-06-10T09:05:20;4.57;;;3.50;;
20020;SDS011;10171;42.694;23.318;2023-06-10T09:07:45;4.43;;;3.95;;
20020;SDS011;10171;42.694;23.318;2023-06-10T09:10:13;8.35;;;4.13;;
20020;SDS011;10171;42.694;23.318;2023-06-10T09:12:39;7.53;;;4.13;;
20020;SDS011;10171;42.694;23.318;2023-06-10T09:15:05;4.10;;;3.70;;
20020;SDS011;10171;42.694;23.318;2023-06-10T09:17:31;4.97;;;3.85;;
20020;SDS011;10171;42.694;23.318;2023-06-10T09:19:57;5.30;;;4.40;;
20020;SDS011;10171;42.694;23.318;2023-06-10T09:22:23;7.50;;;4.05;;
20020;SDS011;10171;42.694;23.318;2023-06-10T09:24:49;6.63;;;3.83;;
20020;SDS011;10171;42.694;23.318;2023-06-10T09:27:15;5.97;;;4.45;;
20020;SDS011;10171;42.694;23.318;2023-06-10T09:32:15;4.72;;;3.80;;
20020;SDS011;10171;42.694;23.318;2023-06-10T09:34:43;4.88;;;4.00;;
20020;SDS011;10171;42.694;23.318;2023-06-10T09:37:08;5.65;;;3.58;;
20020;SDS011;10171;42.694;23.318;2023-06-10T09:39:37;6.40;;;3.90;;
20020;SDS011;10171;42.694;23.318;2023-06-10T09:42:04;4.82;;;3.80;;
20020;SDS011;10171;42.694;23.318;2023-06-10T09:44:40;4.50;;;3.70;;
20020;SDS011;10171;42.694;23.318;2023-06-10T09:47:06;4.55;;;3.80;;
20020;SDS011;10171;42.694;23.318;2023-06-10T09:49:31;6.68;;;3.88;;
20020;SDS011;10171;42.694;23.318;2023-06-10T09:51:57;5.78;;;4.32;;
20020;SDS011;10171;42.694;23.318;2023-06-10T09:54:22;5.90;;;4.00;;
20020;SDS011;10171;42.694;23.318;2023-06-10T09:56:50;5.40;;;3.75;;
20020;SDS011;10171;42.694;23.318;2023-06-10T09:59:38;4.82;;;3.70;;
20020;SDS011;10171;42.694;23.318;2023-06-10T10:02:02;13.77;;;5.55;;
20020;SDS011;10171;42.694;23.318;2023-06-10T10:04:29;5.47;;;3.92;;
20020;SDS011;10171;42.694;23.318;2023-06-10T10:06:54;3.50;;;3.17;;
20020;SDS011;10171;42.694;23.318;2023-06-10T10:09:20;6.68;;;3.38;;
20020;SDS011;10171;42.694;23.318;2023-06-10T10:11:45;10.73;;;4.35;;
20020;SDS011;10171;42.694;23.318;2023-06-10T10:14:13;3.47;;;2.95;;
20020;SDS011;10171;42.694;23.318;2023-06-10T10:16:40;26.48;;;8.05;;
20020;SDS011;10171;42.694;23.318;2023-06-10T10:19:20;5.10;;;3.42;;
20020;SDS011;10171;42.694;23.318;2023-06-10T10:21:53;17.05;;;6.18;;
20020;SDS011;10171;42.694;23.318;2023-06-10T10:24:23;10.40;;;5.00;;
20020;SDS011;10171;42.694;23.318;2023-06-10T10:26:56;16.50;;;7.32;;
20020;SDS011;10171;42.694;23.318;2023-06-10T10:29:29;11.52;;;6.47;;
20020;SDS011;10171;42.694;23.318;2023-06-10T10:31:58;7.00;;;3.30;;
20020;SDS011;10171;42.694;23.318;2023-06-10T10:37:31;10.02;;;6.25;;
20020;SDS011;10171;42.694;23.318;2023-06-10T10:39:57;4.93;;;3.53;;
20020;SDS011;10171;42.694;23.318;2023-06-10T10:42:25;5.00;;;3.40;;
20020;SDS011;10171;42.694;23.318;2023-06-10T10:44:51;3.67;;;3.25;;
20020;SDS011;10171;42.694;23.318;2023-06-10T10:47:17;5.00;;;3.75;;
20020;SDS011;10171;42.694;23.318;2023-06-10T10:49:46;5.68;;;4.32;;
20020;SDS011;10171;42.694;23.318;2023-06-10T10:52:15;7.80;;;4.85;;
20020;SDS011;10171;42.694;23.318;2023-06-10T10:54:45;7.18;;;4.80;;
20020;SDS011;10171;42.694;23.318;2023-06-10T10:57:18;5.65;;;4.10;;
20020;SDS011;10171;42.694;23.318;2023-06-10T11:02:47;6.95;;;4.60;;
20020;SDS011;10171;42.694;23.318;2023-06-10T11:05:08;4.82;;;3.85;;
20020;SDS011;10171;42.694;23.318;2023-06-10T11:07:54;5.75;;;3.75;;
20020;SDS011;10171;42.694;23.318;2023-06-10T11:10:29;7.53;;;4.15;;
20020;SDS011;10171;42.694;23.318;2023-06-10T11:12:57;5.38;;;4.32;;
20020;SDS011;10171;42.694;23.318;2023-06-10T11:15:23;4.65;;;3.90;;
20020;SDS011;10171;42.694;23.318;2023-06-10T11:20:42;6.90;;;3.92;;
20020;SDS011;10171;42.694;23.318;2023-06-10T11:23:07;5.43;;;4.25;;
20020;SDS011;10171;42.694;23.318;2023-06-10T11:25:39;4.60;;;4.03;;
20020;SDS011;10171;42.694;23.318;2023-06-10T11:28:27;5.85;;;4.30;;
20020;SDS011;10171;42.694;23.318;2023-06-10T11:30:56;4.85;;;4.10;;
20020;SDS011;10171;42.694;23.318;2023-06-10T11:33:23;6.32;;;5.10;;
20020;SDS011;10171;42.694;23.318;2023-06-10T11:35:48;5.63;;;4.53;;
20020;SDS011;10171;42.694;23.318;2023-06-10T11:38:15;9.02;;;5.65;;
20020;SDS011;10171;42.694;23.318;2023-06-10T11:40:40;4.85;;;4.20;;
20020;SDS011;10171;42.694;23.318;2023-06-10T11:43:13;6.03;;;4.60;;
20020;SDS011;10171;42.694;23.318;2023-06-10T11:45:40;10.77;;;4.93;;
20020;SDS011;10171;42.694;23.318;2023-06-10T11:48:05;6.60;;;4.30;;
20020;SDS011;10171;42.694;23.318;2023-06-10T11:50:31;6.63;;;4.57;;
20020;SDS011;10171;42.694;23.318;2023-06-10T11:52:57;8.38;;;4.75;;
20020;SDS011;10171;42.694;23.318;2023-06-10T11:55:23;6.47;;;4.22;;
20020;SDS011;10171;42.694;23.318;2023-06-10T11:57:48;5.20;;;3.90;;
20020;SDS011;10171;42.694;23.318;2023-06-10T12:00:22;5.10;;;4.25;;
20020;SDS011;10171;42.694;23.318;2023-06-10T12:02:54;7.05;;;4.90;;
20020;SDS011;10171;42.694;23.318;2023-06-10T12:05:20;7.45;;;4.53;;
20020;SDS011;10171;42.694;23.318;2023-06-10T12:07:45;9.20;;;4.00;;
20020;SDS011;10171;42.694;23.318;2023-06-10T12:10:11;6.32;;;3.80;;
20020;SDS011;10171;42.694;23.318;2023-06-10T12:12:36;4.43;;;3.60;;
20020;SDS011;10171;42.694;23.318;2023-06-10T12:15:02;4.40;;;3.35;;
20020;SDS011;10171;42.694;23.318;2023-06-10T12:19:55;3.38;;;3.08;;
20020;SDS011;10171;42.694;23.318;2023-06-10T12:22:21;6.90;;;3.40;;
20020;SDS011;10171;42.694;23.318;2023-06-10T12:24:58;5.82;;;3.63;;
20020;SDS011;10171;42.694;23.318;2023-06-10T12:27:25;4.93;;;3.30;;
20020;SDS011;10171;42.694;23.318;2023-06-10T12:29:53;4.60;;;3.47;;
20020;SDS011;10171;42.694;23.318;2023-06-10T12:32:18;7.07;;;3.95;;
20020;SDS011;10171;42.694;23.318;2023-06-10T12:34:45;3.50;;;3.20;;
20020;SDS011;10171;42.694;23.318;2023-06-10T12:37:13;3.42;;;3.13;;
20020;SDS011;10171;42.694;23.318;2023-06-10T12:39:39;5.25;;;4.35;;
20020;SDS011;10171;42.694;23.318;2023-06-10T12:42:05;7.50;;;3.85;;
20020;SDS011;10171;42.694;23.318;2023-06-10T12:44:38;5.60;;;3.88;;
20020;SDS011;10171;42.694;23.318;2023-06-10T12:47:09;5.47;;;3.90;;
20020;SDS011;10171;42.694;23.318;2023-06-10T12:49:35;4.60;;;3.65;;
20020;SDS011;10171;42.694;23.318;2023-06-10T12:52:01;4.63;;;3.70;;
20020;SDS011;10171;42.694;23.318;2023-06-10T12:54:26;5.15;;;3.55;;
20020;SDS011;10171;42.694;23.318;2023-06-10T12:56:52;4.10;;;3.53;;
20020;SDS011;10171;42.694;23.318;2023-06-10T12:59:18;4.88;;;3.83;;
20020;SDS011;10171;42.694;23.318;2023-06-10T13:01:43;6.70;;;3.05;;
20020;SDS011;10171;42.694;23.318;2023-06-10T13:04:08;5.10;;;3.17;;
20020;SDS011;10171;42.694;23.318;2023-06-10T13:06:34;3.70;;;3.08;;
20020;SDS011;10171;42.694;23.318;2023-06-10T13:09:03;4.28;;;3.40;;
20020;SDS011;10171;42.694;23.318;2023-06-10T13:11:31;5.18;;;3.60;;
20020;SDS011;10171;42.694;23.318;2023-06-10T13:13:57;4.03;;;2.75;;
20020;SDS011;10171;42.694;23.318;2023-06-10T13:16:22;3.78;;;2.90;;
20020;SDS011;10171;42.694;23.318;2023-06-10T13:18:47;6.22;;;3.55;;
20020;SDS011;10171;42.694;23.318;2023-06-10T13:21:13;10.95;;;3.88;;
20020;SDS011;10171;42.694;23.318;2023-06-10T13:23:38;6.97;;;3.63;;
20020;SDS011;10171;42.694;23.318;2023-06-10T13:26:03;6.25;;;4.05;;
20020;SDS011;10171;42.694;23.318;2023-06-10T13:28:29;4.70;;;3.60;;
20020;SDS011;10171;42.694;23.318;2023-06-10T13:30:55;4.75;;;3.55;;
20020;SDS011;10171;42.694;23.318;2023-06-10T13:33:21;6.18;;;4.20;;
20020;SDS011;10171;42.694;23.318;2023-06-10T13:35:46;7.85;;;4.53;;
20020;SDS011;10171;42.694;23.318;2023-06-10T13:38:11;6.47;;;4.15;;
20020;SDS011;10171;42.694;23.318;2023-06-10T13:40:37;5.32;;;4.07;;
20020;SDS011;10171;42.694;23.318;2023-06-10T13:43:03;5.30;;;3.83;;
20020;SDS011;10171;42.694;23.318;2023-06-10T13:45:28;8.25;;;4.45;;
20020;SDS011;10171;42.694;23.318;2023-06-10T13:47:53;10.82;;;4.03;;
20020;SDS011;10171;42.694;23.318;2023-06-10T13:50:19;7.45;;;5.00;;
20020;SDS011;10171;42.694;23.318;2023-06-10T13:52:45;6.43;;;4.47;;
20020;SDS011;10171;42.694;23.318;2023-06-10T13:55:10;6.25;;;4.32;;
20020;SDS011;10171;42.694;23.318;2023-06-10T13:57:36;5.03;;;4.25;;
20020;SDS011;10171;42.694;23.318;2023-06-10T14:00:01;6.00;;;4.40;;
20020;SDS011;10171;42.694;23.318;2023-06-10T14:02:27;4.80;;;3.97;;
20020;SDS011;10171;42.694;23.318;2023-06-10T14:04:54;7.07;;;4.32;;
20020;SDS011;10171;42.694;23.318;2023-06-10T14:07:19;6.65;;;4.68;;
20020;SDS011;10171;42.694;23.318;2023-06-10T14:09:45;8.48;;;4.78;;
20020;SDS011;10171;42.694;23.318;2023-06-10T14:12:10;6.55;;;5.38;;
20020;SDS011;10171;42.694;23.318;2023-06-10T14:14:36;8.48;;;4.70;;
20020;SDS011;10171;42.694;23.318;2023-06-10T14:17:01;6.30;;;4.57;;
20020;SDS011;10171;42.694;23.318;2023-06-10T14:19:28;6.82;;;4.88;;
20020;SDS011;10171;42.694;23.318;2023-06-10T14:21:53;4.68;;;4.25;;
20020;SDS011;10171;42.694;23.318;2023-06-10T14:24:20;6.93;;;4.43;;
20020;SDS011;10171;42.694;23.318;2023-06-10T14:26:45;6.15;;;4.70;;
20020;SDS011;10171;42.694;23.318;2023-06-10T14:29:10;7.93;;;4.75;;
20020;SDS011;10171;42.694;23.318;2023-06-10T14:31:39;4.80;;;3.85;;
20020;SDS011;10171;42.694;23.318;2023-06-10T14:34:04;5.00;;;4.43;;
20020;SDS011;10171;42.694;23.318;2023-06-10T14:36:32;6.00;;;4.55;;
20020;SDS011;10171;42.694;23.318;2023-06-10T14:38:58;7.28;;;4.43;;